sensor_id;sensor_type;location;lat;lon;timestamp;P1;durP1;ratioP1;P2;durP2;ratioP2
3777;SDS011;1904;50.076;8.660;2023-05-07T00:08:06;3.43;;;2.00;;
3777;SDS011;1904;50.076;8.660;2023-05-07T00:13:42;5.53;;;2.00;;
3777;SDS011;1904;50.076;8.660;2023-05-07T00:16:18;2.83;;;1.90;;
3777;SDS011;1904;50.076;8.660;2023-05-07T00:18:44;2.77;;;1.80;;
3777;SDS011;1904;50.076;8.660;2023-05-07T00:21:10;2.17;;;2.03;;
3777;SDS011;1904;50.076;8.660;2023-05-07T00:23:36;13.20;;;2.27;;
3777;SDS011;1904;50.076;8.660;2023-05-07T00:26:06;3.37;;;1.80;;
3777;SDS011;1904;50.076;8.660;2023-05-07T00:28:32;4.73;;;2.10;;
3777;SDS011;1904;50.076;8.660;2023-05-07T00:30:58;2.00;;;1.80;;
3777;SDS011;1904;50.076;8.660;2023-05-07T00:33:24;7.10;;;1.90;;
3777;SDS011;1904;50.076;8.660;2023-05-07T00:35:54;3.50;;;2.27;;
3777;SDS011;1904;50.076;8.660;2023-05-07T00:38:20;2.20;;;2.00;;
3777;SDS011;1904;50.076;8.660;2023-05-07T00:40:46;2.07;;;1.87;;
3777;SDS011;1904;50.076;8.660;2023-05-07T00:43:12;5.17;;;1.97;;
3777;SDS011;1904;50.076;8.660;2023-05-07T00:45:38;3.90;;;2.20;;
3777;SDS011;1904;50.076;8.660;2023-05-07T00:51:12;4.00;;;1.80;;
3777;SDS011;1904;50.076;8.660;2023-05-07T01:05:18;3.90;;;2.30;;
3777;SDS011;1904;50.076;8.660;2023-05-07T01:08:01;2.60;;;2.17;;
3777;SDS011;1904;50.076;8.660;2023-05-07T01:13:50;5.63;;;2.43;;
3777;SDS011;1904;50.076;8.660;2023-05-07T01:16:24;2.60;;;2.40;;
3777;SDS011;1904;50.076;8.660;2023-05-07T01:19:00;2.30;;;2.10;;
3777;SDS011;1904;50.076;8.660;2023-05-07T01:21:46;2.83;;;2.30;;
3777;SDS011;1904;50.076;8.660;2023-05-07T01:24:24;3.83;;;2.27;;
3777;SDS011;1904;50.076;8.660;2023-05-07T01:26:50;2.37;;;1.67;;
3777;SDS011;1904;50.076;8.660;2023-05-07T01:29:18;4.00;;;2.10;;
3777;SDS011;1904;50.076;8.660;2023-05-07T01:31:48;5.70;;;2.33;;
3777;SDS011;1904;50.076;8.660;2023-05-07T01:37:20;4.47;;;2.20;;
3777;SDS011;1904;50.076;8.660;2023-05-07T01:39:54;2.37;;;2.17;;
3777;SDS011;1904;50.076;8.660;2023-05-07T01:42:21;4.23;;;2.30;;
3777;SDS011;1904;50.076;8.660;2023-05-07T01:44:47;3.43;;;2.20;;
3777;SDS011;1904;50.076;8.660;2023-05-07T01:47:13;3.47;;;2.17;;
3777;SDS011;1904;50.076;8.660;2023-05-07T01:49:39;9.23;;;2.30;;
3777;SDS011;1904;50.076;8.660;2023-05-07T01:52:05;2.47;;;2.27;;
3777;SDS011;1904;50.076;8.660;2023-05-07T02:00:24;2.90;;;2.47;;
3777;SDS011;1904;50.076;8.660;2023-05-07T02:02:50;2.30;;;1.97;;
3777;SDS011;1904;50.076;8.660;2023-05-07T02:08:39;3.60;;;2.10;;
3777;SDS011;1904;50.076;8.660;2023-05-07T02:11:06;7.57;;;2.20;;
3777;SDS011;1904;50.076;8.660;2023-05-07T02:13:33;6.47;;;2.37;;
3777;SDS011;1904;50.076;8.660;2023-05-07T02:19:24;2.23;;;2.03;;
3777;SDS011;1904;50.076;8.660;2023-05-07T02:21:50;2.00;;;1.80;;
3777;SDS011;1904;50.076;8.660;2023-05-07T02:24:16;2.13;;;1.93;;
3777;SDS011;1904;50.076;8.660;2023-05-07T02:26:42;5.10;;;2.20;;
3777;SDS011;1904;50.076;8.660;2023-05-07T02:29:07;2.57;;;2.37;;
3777;SDS011;1904;50.076;8.660;2023-05-07T02:31:36;5.57;;;1.93;;
3777;SDS011;1904;50.076;8.660;2023-05-07T02:34:02;5.10;;;2.33;;
3777;SDS011;1904;50.076;8.660;2023-05-07T02:36:28;4.40;;;2.57;;
3777;SDS011;1904;50.076;8.660;2023-05-07T02:39:00;4.87;;;2.50;;
3777;SDS011;1904;50.076;8.660;2023-05-07T02:41:27;3.60;;;2.03;;
3777;SDS011;1904;50.076;8.660;2023-05-07T02:43:53;3.20;;;2.50;;
3777;SDS011;1904;50.076;8.660;2023-05-07T02:46:19;4.50;;;2.27;;
3777;SDS011;1904;50.076;8.660;2023-05-07T02:48:44;3.50;;;2.10;;
3777;SDS011;1904;50.076;8.660;2023-05-07T02:51:10;3.90;;;2.50;;
3777;SDS011;1904;50.076;8.660;2023-05-07T02:53:36;4.53;;;2.50;;
3777;SDS011;1904;50.076;8.660;2023-05-07T02:56:06;7.90;;;2.10;;
3777;SDS011;1904;50.076;8.660;2023-05-07T02:58:32;2.37;;;2.17;;
3777;SDS011;1904;50.076;8.660;2023-05-07T03:00:58;2.77;;;2.53;;
3777;SDS011;1904;50.076;8.660;2023-05-07T03:03:24;2.50;;;2.30;;
3777;SDS011;1904;50.076;8.660;2023-05-07T03:05:49;2.93;;;2.00;;
3777;SDS011;1904;50.076;8.660;2023-05-07T03:08:15;2.50;;;2.30;;
3777;SDS011;1904;50.076;8.660;2023-05-07T03:10:42;2.30;;;2.20;;
3777;SDS011;1904;50.076;8.660;2023-05-07T03:13:12;3.73;;;2.10;;
3777;SDS011;1904;50.076;8.660;2023-05-07T03:15:42;3.87;;;2.50;;
3777;SDS011;1904;50.076;8.660;2023-05-07T03:18:08;4.53;;;2.67;;
3777;SDS011;1904;50.076;8.660;2023-05-07T03:20:48;4.03;;;3.10;;
3777;SDS011;1904;50.076;8.660;2023-05-07T03:23:24;4.70;;;2.60;;
3777;SDS011;1904;50.076;8.660;2023-05-07T03:25:50;6.30;;;2.20;;
3777;SDS011;1904;50.076;8.660;2023-05-07T03:34:59;4.53;;;2.83;;
3777;SDS011;1904;50.076;8.660;2023-05-07T03:43:53;3.10;;;2.40;;
3777;SDS011;1904;50.076;8.660;2023-05-07T03:49:41;3.03;;;2.77;;
3777;SDS011;1904;50.076;8.660;2023-05-07T03:52:24;2.47;;;2.33;;
3777;SDS011;1904;50.076;8.660;2023-05-07T03:58:24;4.13;;;2.20;;
3777;SDS011;1904;50.076;8.660;2023-05-07T04:13:52;4.33;;;3.13;;
3777;SDS011;1904;50.076;8.660;2023-05-07T04:19:39;3.20;;;2.53;;
3777;SDS011;1904;50.076;8.660;2023-05-07T04:28:35;3.33;;;2.80;;
3777;SDS011;1904;50.076;8.660;2023-05-07T04:41:24;3.23;;;2.30;;
3777;SDS011;1904;50.076;8.660;2023-05-07T04:50:04;2.73;;;2.23;;
3777;SDS011;1904;50.076;8.660;2023-05-07T04:52:37;2.90;;;2.70;;
3777;SDS011;1904;50.076;8.660;2023-05-07T04:58:25;4.40;;;2.20;;
3777;SDS011;1904;50.076;8.660;2023-05-07T05:00:50;7.97;;;2.93;;
3777;SDS011;1904;50.076;8.660;2023-05-07T05:06:38;6.10;;;3.53;;
3777;SDS011;1904;50.076;8.660;2023-05-07T05:16:01;4.50;;;2.67;;
3777;SDS011;1904;50.076;8.660;2023-05-07T05:18:36;4.00;;;2.93;;
3777;SDS011;1904;50.076;8.660;2023-05-07T05:44:03;4.90;;;2.80;;
3777;SDS011;1904;50.076;8.660;2023-05-07T05:49:51;3.47;;;3.17;;
3777;SDS011;1904;50.076;8.660;2023-05-07T05:52:31;2.70;;;2.50;;
3777;SDS011;1904;50.076;8.660;2023-05-07T06:01:35;3.37;;;2.37;;
3777;SDS011;1904;50.076;8.660;2023-05-07T06:04:06;8.53;;;2.70;;
3777;SDS011;1904;50.076;8.660;2023-05-07T06:09:54;2.77;;;2.47;;
3777;SDS011;1904;50.076;8.660;2023-05-07T06:12:31;5.57;;;2.40;;
3777;SDS011;1904;50.076;8.660;2023-05-07T06:18:18;2.67;;;2.37;;
3777;SDS011;1904;50.076;8.660;2023-05-07T06:20:55;4.47;;;2.90;;
3777;SDS011;1904;50.076;8.660;2023-05-07T06:26:42;4.87;;;2.70;;
3777;SDS011;1904;50.076;8.660;2023-05-07T06:36:00;3.30;;;2.87;;
3777;SDS011;1904;50.076;8.660;2023-05-07T06:58:37;2.87;;;2.67;;
3777;SDS011;1904;50.076;8.660;2023-05-07T07:04:25;3.00;;;2.80;;
3777;SDS011;1904;50.076;8.660;2023-05-07T07:13:34;5.73;;;3.00;;
3777;SDS011;1904;50.076;8.660;2023-05-07T07:19:22;3.20;;;2.90;;
3777;SDS011;1904;50.076;8.660;2023-05-07T07:31:55;2.73;;;2.53;;
3777;SDS011;1904;50.076;8.660;2023-05-07T07:50:30;9.00;;;3.10;;
3777;SDS011;1904;50.076;8.660;2023-05-07T07:55:55;2.87;;;2.67;;
3777;SDS011;1904;50.076;8.660;2023-05-07T08:05:04;4.17;;;2.87;;
3777;SDS011;1904;50.076;8.660;2023-05-07T08:26:44;3.87;;;2.80;;
3777;SDS011;1904;50.076;8.660;2023-05-07T08:29:25;2.83;;;2.63;;
3777;SDS011;1904;50.076;8.660;2023-05-07T08:31:50;3.87;;;3.50;;
3777;SDS011;1904;50.076;8.660;2023-05-07T08:40:30;4.93;;;2.83;;
3777;SDS011;1904;50.076;8.660;2023-05-07T08:43:02;3.30;;;3.00;;
3777;SDS011;1904;50.076;8.660;2023-05-07T08:45:31;3.00;;;2.80;;
3777;SDS011;1904;50.076;8.660;2023-05-07T08:48:00;3.20;;;2.90;;
3777;SDS011;1904;50.076;8.660;2023-05-07T08:50:28;3.13;;;2.93;;
3777;SDS011;1904;50.076;8.660;2023-05-07T08:52:54;3.23;;;3.00;;
3777;SDS011;1904;50.076;8.660;2023-05-07T08:55:21;3.80;;;3.50;;
3777;SDS011;1904;50.076;8.660;2023-05-07T08:57:48;3.53;;;3.13;;
3777;SDS011;1904;50.076;8.660;2023-05-07T09:00:15;3.40;;;3.03;;
3777;SDS011;1904;50.076;8.660;2023-05-07T09:02:41;3.30;;;3.10;;
3777;SDS011;1904;50.076;8.660;2023-05-07T09:05:07;3.60;;;3.33;;
3777;SDS011;1904;50.076;8.660;2023-05-07T09:07:33;3.67;;;3.27;;
3777;SDS011;1904;50.076;8.660;2023-05-07T09:10:02;3.20;;;3.00;;
3777;SDS011;1904;50.076;8.660;2023-05-07T09:12:29;3.83;;;3.43;;
3777;SDS011;1904;50.076;8.660;2023-05-07T09:14:55;3.30;;;2.80;;
3777;SDS011;1904;50.076;8.660;2023-05-07T09:17:21;3.77;;;3.27;;
3777;SDS011;1904;50.076;8.660;2023-05-07T09:19:47;4.67;;;3.20;;
3777;SDS011;1904;50.076;8.660;2023-05-07T09:22:12;3.87;;;3.43;;
3777;SDS011;1904;50.076;8.660;2023-05-07T09:24:55;3.80;;;3.50;;
3777;SDS011;1904;50.076;8.660;2023-05-07T09:30:08;3.40;;;3.20;;
3777;SDS011;1904;50.076;8.660;2023-05-07T09:32:43;3.40;;;3.10;;
3777;SDS011;1904;50.076;8.660;2023-05-07T09:35:25;4.27;;;3.40;;
3777;SDS011;1904;50.076;8.660;2023-05-07T09:38:01;3.33;;;2.57;;
3777;SDS011;1904;50.076;8.660;2023-05-07T09:47:01;3.53;;;3.23;;
3777;SDS011;1904;50.076;8.660;2023-05-07T09:49:32;3.27;;;3.07;;
3777;SDS011;1904;50.076;8.660;2023-05-07T09:52:13;3.03;;;2.83;;
3777;SDS011;1904;50.076;8.660;2023-05-07T09:54:43;3.57;;;3.00;;
3777;SDS011;1904;50.076;8.660;2023-05-07T09:57:10;3.10;;;2.90;;
3777;SDS011;1904;50.076;8.660;2023-05-07T09:59:43;3.20;;;2.90;;
3777;SDS011;1904;50.076;8.660;2023-05-07T10:02:11;3.13;;;2.93;;
3777;SDS011;1904;50.076;8.660;2023-05-07T10:04:38;3.23;;;3.03;;
3777;SDS011;1904;50.076;8.660;2023-05-07T10:07:05;3.20;;;2.90;;
3777;SDS011;1904;50.076;8.660;2023-05-07T10:09:37;4.73;;;2.67;;
3777;SDS011;1904;50.076;8.660;2023-05-07T10:12:05;4.17;;;2.90;;
3777;SDS011;1904;50.076;8.660;2023-05-07T10:14:31;3.13;;;2.93;;
3777;SDS011;1904;50.076;8.660;2023-05-07T10:16:57;3.20;;;3.00;;
3777;SDS011;1904;50.076;8.660;2023-05-07T10:19:24;6.20;;;3.23;;
3777;SDS011;1904;50.076;8.660;2023-05-07T10:22:00;3.40;;;3.10;;
3777;SDS011;1904;50.076;8.660;2023-05-07T10:24:31;3.80;;;2.97;;
3777;SDS011;1904;50.076;8.660;2023-05-07T10:26:59;3.07;;;2.90;;
3777;SDS011;1904;50.076;8.660;2023-05-07T10:34:40;3.00;;;2.80;;
3777;SDS011;1904;50.076;8.660;2023-05-07T10:37:09;2.30;;;2.20;;
3777;SDS011;1904;50.076;8.660;2023-05-07T10:39:43;2.53;;;2.43;;
3777;SDS011;1904;50.076;8.660;2023-05-07T10:42:13;3.37;;;2.60;;
3777;SDS011;1904;50.076;8.660;2023-05-07T10:44:43;4.20;;;2.80;;
3777;SDS011;1904;50.076;8.660;2023-05-07T10:52:43;4.97;;;2.30;;
3777;SDS011;1904;50.076;8.660;2023-05-07T11:01:13;2.90;;;2.63;;
3777;SDS011;1904;50.076;8.660;2023-05-07T11:15:04;3.00;;;2.80;;
3777;SDS011;1904;50.076;8.660;2023-05-07T11:17:31;3.17;;;2.87;;
3777;SDS011;1904;50.076;8.660;2023-05-07T11:19:59;5.93;;;2.30;;
3777;SDS011;1904;50.076;8.660;2023-05-07T11:22:35;2.73;;;2.63;;
3777;SDS011;1904;50.076;8.660;2023-05-07T11:25:05;2.50;;;2.30;;
3777;SDS011;1904;50.076;8.660;2023-05-07T11:27:31;4.30;;;2.70;;
3777;SDS011;1904;50.076;8.660;2023-05-07T11:29:58;3.33;;;2.43;;
3777;SDS011;1904;50.076;8.660;2023-05-07T11:32:27;3.30;;;2.40;;
3777;SDS011;1904;50.076;8.660;2023-05-07T11:34:55;5.40;;;2.13;;
3777;SDS011;1904;50.076;8.660;2023-05-07T11:37:22;8.80;;;2.40;;
3777;SDS011;1904;50.076;8.660;2023-05-07T11:39:49;3.03;;;2.70;;
3777;SDS011;1904;50.076;8.660;2023-05-07T11:42:27;2.73;;;2.53;;
3777;SDS011;1904;50.076;8.660;2023-05-07T11:44:55;2.43;;;2.23;;
3777;SDS011;1904;50.076;8.660;2023-05-07T11:47:21;2.50;;;2.30;;
3777;SDS011;1904;50.076;8.660;2023-05-07T11:49:47;2.10;;;1.90;;
3777;SDS011;1904;50.076;8.660;2023-05-07T11:52:25;6.47;;;2.40;;
3777;SDS011;1904;50.076;8.660;2023-05-07T12:03:07;3.07;;;1.90;;
3777;SDS011;1904;50.076;8.660;2023-05-07T12:08:31;6.03;;;2.10;;
3777;SDS011;1904;50.076;8.660;2023-05-07T12:10:56;2.30;;;2.07;;
3777;SDS011;1904;50.076;8.660;2023-05-07T12:13:25;3.37;;;2.23;;
3777;SDS011;1904;50.076;8.660;2023-05-07T12:15:52;4.80;;;1.70;;
3777;SDS011;1904;50.076;8.660;2023-05-07T12:18:25;3.93;;;1.30;;
3777;SDS011;1904;50.076;8.660;2023-05-07T12:20:51;1.30;;;1.20;;
3777;SDS011;1904;50.076;8.660;2023-05-07T12:23:31;3.10;;;1.30;;
3777;SDS011;1904;50.076;8.660;2023-05-07T12:25:57;5.73;;;2.03;;
3777;SDS011;1904;50.076;8.660;2023-05-07T12:28:24;1.70;;;1.60;;
3777;SDS011;1904;50.076;8.660;2023-05-07T12:30:55;2.57;;;1.70;;
3777;SDS011;1904;50.076;8.660;2023-05-07T12:33:25;2.10;;;1.60;;
3777;SDS011;1904;50.076;8.660;2023-05-07T12:35:53;1.47;;;1.37;;
3777;SDS011;1904;50.076;8.660;2023-05-07T12:38:20;1.90;;;1.70;;
3777;SDS011;1904;50.076;8.660;2023-05-07T12:40:47;3.57;;;1.90;;
3777;SDS011;1904;50.076;8.660;2023-05-07T12:43:16;3.30;;;2.00;;
3777;SDS011;1904;50.076;8.660;2023-05-07T12:45:43;2.77;;;2.00;;
3777;SDS011;1904;50.076;8.660;2023-05-07T12:48:10;7.03;;;2.00;;
3777;SDS011;1904;50.076;8.660;2023-05-07T12:50:36;2.30;;;2.00;;
3777;SDS011;1904;50.076;8.660;2023-05-07T12:53:05;2.90;;;1.83;;
3777;SDS011;1904;50.076;8.660;2023-05-07T12:55:39;6.33;;;2.00;;
3777;SDS011;1904;50.076;8.660;2023-05-07T12:58:07;2.33;;;1.80;;
3777;SDS011;1904;50.076;8.660;2023-05-07T13:00:43;2.07;;;1.60;;
3777;SDS011;1904;50.076;8.660;2023-05-07T13:03:16;4.17;;;1.90;;
3777;SDS011;1904;50.076;8.660;2023-05-07T13:05:49;2.30;;;1.57;;
3777;SDS011;1904;50.076;8.660;2023-05-07T13:08:26;1.60;;;1.50;;
3777;SDS011;1904;50.076;8.660;2023-05-07T13:11:00;1.90;;;1.80;;
3777;SDS011;1904;50.076;8.660;2023-05-07T13:13:31;3.00;;;1.60;;
3777;SDS011;1904;50.076;8.660;2023-05-07T13:16:13;1.70;;;1.60;;
3777;SDS011;1904;50.076;8.660;2023-05-07T13:18:39;1.50;;;1.40;;
3777;SDS011;1904;50.076;8.660;2023-05-07T13:21:13;2.70;;;1.97;;
3777;SDS011;1904;50.076;8.660;2023-05-07T13:23:38;4.13;;;1.90;;
3777;SDS011;1904;50.076;8.660;2023-05-07T13:26:04;2.93;;;1.90;;
3777;SDS011;1904;50.076;8.660;2023-05-07T13:28:31;1.73;;;1.63;;
3777;SDS011;1904;50.076;8.660;2023-05-07T13:34:01;1.93;;;1.83;;
3777;SDS011;1904;50.076;8.660;2023-05-07T13:36:31;2.40;;;1.63;;
3777;SDS011;1904;50.076;8.660;2023-05-07T13:39:01;1.93;;;1.83;;
3777;SDS011;1904;50.076;8.660;2023-05-07T13:41:26;2.50;;;1.30;;
3777;SDS011;1904;50.076;8.660;2023-05-07T13:43:52;1.43;;;1.33;;
3777;SDS011;1904;50.076;8.660;2023-05-07T13:46:31;1.73;;;1.50;;
3777;SDS011;1904;50.076;8.660;2023-05-07T13:48:57;3.73;;;1.83;;
3777;SDS011;1904;50.076;8.660;2023-05-07T13:51:31;1.87;;;1.77;;
3777;SDS011;1904;50.076;8.660;2023-05-07T13:57:13;1.80;;;1.60;;
3777;SDS011;1904;50.076;8.660;2023-05-07T13:59:43;2.97;;;1.60;;
3777;SDS011;1904;50.076;8.660;2023-05-07T14:02:13;1.80;;;1.70;;
3777;SDS011;1904;50.076;8.660;2023-05-07T14:04:55;3.03;;;2.10;;
3777;SDS011;1904;50.076;8.660;2023-05-07T14:07:25;3.10;;;2.40;;
3777;SDS011;1904;50.076;8.660;2023-05-07T14:09:55;7.13;;;2.30;;
3777;SDS011;1904;50.076;8.660;2023-05-07T14:12:21;2.40;;;2.20;;
3777;SDS011;1904;50.076;8.660;2023-05-07T14:14:47;7.40;;;2.17;;
3777;SDS011;1904;50.076;8.660;2023-05-07T14:17:14;2.40;;;2.20;;
3777;SDS011;1904;50.076;8.660;2023-05-07T14:19:43;3.20;;;2.20;;
3777;SDS011;1904;50.076;8.660;2023-05-07T14:22:13;2.00;;;1.90;;
3777;SDS011;1904;50.076;8.660;2023-05-07T14:24:40;2.77;;;2.10;;
3777;SDS011;1904;50.076;8.660;2023-05-07T14:27:06;1.97;;;1.87;;
3777;SDS011;1904;50.076;8.660;2023-05-07T14:29:32;2.23;;;2.00;;
3777;SDS011;1904;50.076;8.660;2023-05-07T14:31:57;2.13;;;2.03;;
3777;SDS011;1904;50.076;8.660;2023-05-07T14:34:23;2.50;;;2.30;;
3777;SDS011;1904;50.076;8.660;2023-05-07T14:36:49;2.27;;;2.10;;
3777;SDS011;1904;50.076;8.660;2023-05-07T14:39:14;2.40;;;2.20;;
3777;SDS011;1904;50.076;8.660;2023-05-07T14:41:40;4.90;;;2.40;;
3777;SDS011;1904;50.076;8.660;2023-05-07T14:44:06;3.90;;;2.00;;
3777;SDS011;1904;50.076;8.660;2023-05-07T14:46:31;2.60;;;2.33;;
3777;SDS011;1904;50.076;8.660;2023-05-07T14:48:57;2.30;;;2.10;;
3777;SDS011;1904;50.076;8.660;2023-05-07T14:51:23;2.27;;;2.17;;
3777;SDS011;1904;50.076;8.660;2023-05-07T14:53:50;2.47;;;2.30;;
3777;SDS011;1904;50.076;8.660;2023-05-07T14:56:25;2.50;;;2.30;;
3777;SDS011;1904;50.076;8.660;2023-05-07T14:58:55;2.97;;;2.67;;
3777;SDS011;1904;50.076;8.660;2023-05-07T15:01:37;4.00;;;2.33;;
3777;SDS011;1904;50.076;8.660;2023-05-07T15:04:03;2.70;;;2.50;;
3777;SDS011;1904;50.076;8.660;2023-05-07T15:09:37;2.73;;;2.53;;
3777;SDS011;1904;50.076;8.660;2023-05-07T15:12:02;4.10;;;2.73;;
3777;SDS011;1904;50.076;8.660;2023-05-07T15:14:29;2.17;;;2.07;;
3777;SDS011;1904;50.076;8.660;2023-05-07T15:16:54;3.00;;;2.30;;
3777;SDS011;1904;50.076;8.660;2023-05-07T15:19:20;3.23;;;2.07;;
3777;SDS011;1904;50.076;8.660;2023-05-07T15:21:47;2.70;;;2.17;;
3777;SDS011;1904;50.076;8.660;2023-05-07T15:24:19;2.63;;;2.40;;
3777;SDS011;1904;50.076;8.660;2023-05-07T15:26:49;10.30;;;2.20;;
3777;SDS011;1904;50.076;8.660;2023-05-07T15:29:16;2.83;;;2.63;;
3777;SDS011;1904;50.076;8.660;2023-05-07T15:31:42;2.40;;;2.20;;
3777;SDS011;1904;50.076;8.660;2023-05-07T15:34:19;6.20;;;2.23;;
3777;SDS011;1904;50.076;8.660;2023-05-07T15:36:55;2.30;;;2.20;;
3777;SDS011;1904;50.076;8.660;2023-05-07T15:39:22;2.50;;;2.30;;
3777;SDS011;1904;50.076;8.660;2023-05-07T15:41:48;2.23;;;2.10;;
3777;SDS011;1904;50.076;8.660;2023-05-07T15:44:13;2.67;;;2.30;;
3777;SDS011;1904;50.076;8.660;2023-05-07T15:46:39;2.53;;;2.40;;
3777;SDS011;1904;50.076;8.660;2023-05-07T15:49:04;3.77;;;3.00;;
3777;SDS011;1904;50.076;8.660;2023-05-07T15:51:30;3.17;;;2.37;;
3777;SDS011;1904;50.076;8.660;2023-05-07T15:53:59;4.33;;;2.43;;
3777;SDS011;1904;50.076;8.660;2023-05-07T15:56:24;2.37;;;2.17;;
3777;SDS011;1904;50.076;8.660;2023-05-07T15:58:50;2.43;;;2.23;;
3777;SDS011;1904;50.076;8.660;2023-05-07T16:01:17;3.43;;;2.40;;
3777;SDS011;1904;50.076;8.660;2023-05-07T16:03:43;2.93;;;2.50;;
3777;SDS011;1904;50.076;8.660;2023-05-07T16:06:09;2.60;;;2.40;;
3777;SDS011;1904;50.076;8.660;2023-05-07T16:08:36;2.73;;;2.53;;
3777;SDS011;1904;50.076;8.660;2023-05-07T16:11:04;2.17;;;2.07;;
3777;SDS011;1904;50.076;8.660;2023-05-07T16:13:43;2.67;;;2.47;;
3777;SDS011;1904;50.076;8.660;2023-05-07T16:16:19;3.43;;;2.47;;
3777;SDS011;1904;50.076;8.660;2023-05-07T16:18:55;5.53;;;2.13;;
3777;SDS011;1904;50.076;8.660;2023-05-07T16:21:31;3.37;;;2.30;;
3777;SDS011;1904;50.076;8.660;2023-05-07T16:30:25;2.80;;;2.60;;
3777;SDS011;1904;50.076;8.660;2023-05-07T16:33:02;2.53;;;2.43;;
3777;SDS011;1904;50.076;8.660;2023-05-07T16:35:31;2.70;;;2.50;;
3777;SDS011;1904;50.076;8.660;2023-05-07T16:38:01;2.83;;;2.63;;
3777;SDS011;1904;50.076;8.660;2023-05-07T16:47:31;3.90;;;2.83;;
3777;SDS011;1904;50.076;8.660;2023-05-07T16:49:57;2.57;;;2.37;;
3777;SDS011;1904;50.076;8.660;2023-05-07T16:52:25;8.60;;;2.47;;
3777;SDS011;1904;50.076;8.660;2023-05-07T17:08:01;3.37;;;2.30;;
3777;SDS011;1904;50.076;8.660;2023-05-07T17:10:27;3.90;;;2.80;;
3777;SDS011;1904;50.076;8.660;2023-05-07T17:15:44;2.40;;;2.20;;
3777;SDS011;1904;50.076;8.660;2023-05-07T17:18:12;2.50;;;2.30;;
3777;SDS011;1904;50.076;8.660;2023-05-07T17:20:43;3.60;;;2.23;;
3777;SDS011;1904;50.076;8.660;2023-05-07T17:23:13;3.73;;;2.20;;
3777;SDS011;1904;50.076;8.660;2023-05-07T17:25:55;2.03;;;1.93;;
3777;SDS011;1904;50.076;8.660;2023-05-07T17:28:25;2.70;;;2.50;;
3777;SDS011;1904;50.076;8.660;2023-05-07T17:31:01;3.17;;;2.20;;
3777;SDS011;1904;50.076;8.660;2023-05-07T17:33:31;3.57;;;2.30;;
3777;SDS011;1904;50.076;8.660;2023-05-07T17:39:01;4.23;;;2.57;;
3777;SDS011;1904;50.076;8.660;2023-05-07T17:41:28;5.00;;;2.50;;
3777;SDS011;1904;50.076;8.660;2023-05-07T17:44:01;6.17;;;2.60;;
3777;SDS011;1904;50.076;8.660;2023-05-07T17:49:27;10.90;;;2.20;;
3777;SDS011;1904;50.076;8.660;2023-05-07T17:52:01;5.50;;;2.80;;
3777;SDS011;1904;50.076;8.660;2023-05-07T17:54:31;4.60;;;2.50;;
3777;SDS011;1904;50.076;8.660;2023-05-07T18:00:02;3.70;;;2.53;;
3777;SDS011;1904;50.076;8.660;2023-05-07T18:08:31;4.60;;;2.53;;
3777;SDS011;1904;50.076;8.660;2023-05-07T18:10:58;11.70;;;2.73;;
3777;SDS011;1904;50.076;8.660;2023-05-07T18:13:24;4.00;;;3.03;;
3777;SDS011;1904;50.076;8.660;2023-05-07T18:15:50;7.60;;;3.37;;
3777;SDS011;1904;50.076;8.660;2023-05-07T18:18:19;4.57;;;3.10;;
3777;SDS011;1904;50.076;8.660;2023-05-07T18:20:50;6.20;;;2.90;;
3777;SDS011;1904;50.076;8.660;2023-05-07T18:26:31;14.03;;;3.23;;
3777;SDS011;1904;50.076;8.660;2023-05-07T18:29:01;8.03;;;2.40;;
3777;SDS011;1904;50.076;8.660;2023-05-07T18:31:31;8.73;;;2.43;;
3777;SDS011;1904;50.076;8.660;2023-05-07T18:37:01;3.30;;;2.20;;
3777;SDS011;1904;50.076;8.660;2023-05-07T18:39:31;4.43;;;2.30;;
3777;SDS011;1904;50.076;8.660;2023-05-07T18:42:01;4.40;;;1.77;;
3777;SDS011;1904;50.076;8.660;2023-05-07T18:44:31;5.80;;;2.60;;
3777;SDS011;1904;50.076;8.660;2023-05-07T18:49:56;6.30;;;2.33;;
3777;SDS011;1904;50.076;8.660;2023-05-07T18:52:22;3.13;;;2.40;;
3777;SDS011;1904;50.076;8.660;2023-05-07T18:55:01;2.67;;;2.47;;
3777;SDS011;1904;50.076;8.660;2023-05-07T19:00:31;2.80;;;2.43;;
3777;SDS011;1904;50.076;8.660;2023-05-07T19:03:13;2.53;;;2.30;;
3777;SDS011;1904;50.076;8.660;2023-05-07T19:08:31;4.53;;;2.53;;
3777;SDS011;1904;50.076;8.660;2023-05-07T19:11:01;3.27;;;2.60;;
3777;SDS011;1904;50.076;8.660;2023-05-07T19:22:30;5.00;;;3.80;;
3777;SDS011;1904;50.076;8.660;2023-05-07T19:25:01;6.83;;;4.17;;
3777;SDS011;1904;50.076;8.660;2023-05-07T19:27:26;4.10;;;3.73;;
3777;SDS011;1904;50.076;8.660;2023-05-07T19:29:52;8.13;;;4.23;;
3777;SDS011;1904;50.076;8.660;2023-05-07T19:32:31;9.70;;;4.53;;
3777;SDS011;1904;50.076;8.660;2023-05-07T19:37:49;6.03;;;3.63;;
3777;SDS011;1904;50.076;8.660;2023-05-07T19:40:25;10.70;;;3.80;;
3777;SDS011;1904;50.076;8.660;2023-05-07T19:43:01;4.80;;;4.30;;
3777;SDS011;1904;50.076;8.660;2023-05-07T19:45:31;6.17;;;4.03;;
3777;SDS011;1904;50.076;8.660;2023-05-07T19:48:01;12.03;;;3.60;;
3777;SDS011;1904;50.076;8.660;2023-05-07T19:50:27;9.00;;;4.03;;
3777;SDS011;1904;50.076;8.660;2023-05-07T19:53:01;6.20;;;4.13;;
3777;SDS011;1904;50.076;8.660;2023-05-07T19:55:31;6.47;;;4.33;;
3777;SDS011;1904;50.076;8.660;2023-05-07T19:58:01;4.50;;;4.10;;
3777;SDS011;1904;50.076;8.660;2023-05-07T20:00:27;6.33;;;4.20;;
3777;SDS011;1904;50.076;8.660;2023-05-07T20:02:56;5.50;;;4.40;;
3777;SDS011;1904;50.076;8.660;2023-05-07T20:05:22;5.10;;;4.20;;
3777;SDS011;1904;50.076;8.660;2023-05-07T20:07:49;6.10;;;4.50;;
3777;SDS011;1904;50.076;8.660;2023-05-07T20:10:15;6.10;;;4.70;;
3777;SDS011;1904;50.076;8.660;2023-05-07T20:12:41;11.33;;;5.30;;
3777;SDS011;1904;50.076;8.660;2023-05-07T20:15:07;6.53;;;5.17;;
3777;SDS011;1904;50.076;8.660;2023-05-07T20:17:33;5.40;;;4.67;;
3777;SDS011;1904;50.076;8.660;2023-05-07T20:19:59;7.17;;;5.30;;
3777;SDS011;1904;50.076;8.660;2023-05-07T20:22:25;11.53;;;4.93;;
3777;SDS011;1904;50.076;8.660;2023-05-07T20:24:54;5.07;;;4.53;;
3777;SDS011;1904;50.076;8.660;2023-05-07T20:27:19;5.17;;;4.53;;
3777;SDS011;1904;50.076;8.660;2023-05-07T20:29:49;5.30;;;4.77;;
3777;SDS011;1904;50.076;8.660;2023-05-07T20:32:15;5.23;;;4.70;;
3777;SDS011;1904;50.076;8.660;2023-05-07T20:34:43;7.70;;;4.80;;
3777;SDS011;1904;50.076;8.660;2023-05-07T20:37:09;5.50;;;4.53;;
3777;SDS011;1904;50.076;8.660;2023-05-07T20:39:38;7.07;;;5.03;;
3777;SDS011;1904;50.076;8.660;2023-05-07T20:42:07;7.30;;;4.63;;
3777;SDS011;1904;50.076;8.660;2023-05-07T20:44:32;6.97;;;4.70;;
3777;SDS011;1904;50.076;8.660;2023-05-07T20:46:59;8.93;;;4.67;;
3777;SDS011;1904;50.076;8.660;2023-05-07T20:49:25;7.37;;;5.00;;
3777;SDS011;1904;50.076;8.660;2023-05-07T20:51:51;5.60;;;4.37;;
3777;SDS011;1904;50.076;8.660;2023-05-07T20:54:17;4.70;;;4.30;;
3777;SDS011;1904;50.076;8.660;2023-05-07T20:56:42;12.60;;;4.80;;
3777;SDS011;1904;50.076;8.660;2023-05-07T20:59:08;9.73;;;4.93;;
3777;SDS011;1904;50.076;8.660;2023-05-07T21:01:43;8.60;;;5.57;;
3777;SDS011;1904;50.076;8.660;2023-05-07T21:04:13;7.20;;;4.90;;
3777;SDS011;1904;50.076;8.660;2023-05-07T21:06:39;20.77;;;5.40;;
3777;SDS011;1904;50.076;8.660;2023-05-07T21:09:19;8.33;;;5.40;;
3777;SDS011;1904;50.076;8.660;2023-05-07T21:12:01;8.33;;;5.83;;
3777;SDS011;1904;50.076;8.660;2023-05-07T21:14:27;5.60;;;4.87;;
3777;SDS011;1904;50.076;8.660;2023-05-07T21:17:01;5.83;;;5.10;;
3777;SDS011;1904;50.076;8.660;2023-05-07T21:22:43;6.20;;;5.40;;
3777;SDS011;1904;50.076;8.660;2023-05-07T21:25:19;9.80;;;5.23;;
3777;SDS011;1904;50.076;8.660;2023-05-07T21:27:55;6.90;;;5.80;;
3777;SDS011;1904;50.076;8.660;2023-05-07T21:30:25;8.87;;;6.00;;
3777;SDS011;1904;50.076;8.660;2023-05-07T21:32:51;9.93;;;5.07;;
3777;SDS011;1904;50.076;8.660;2023-05-07T21:35:19;8.10;;;5.47;;
3777;SDS011;1904;50.076;8.660;2023-05-07T21:37:45;14.47;;;5.53;;
3777;SDS011;1904;50.076;8.660;2023-05-07T21:40:11;10.93;;;6.17;;
3777;SDS011;1904;50.076;8.660;2023-05-07T21:42:37;8.20;;;5.87;;
3777;SDS011;1904;50.076;8.660;2023-05-07T21:45:06;11.37;;;6.30;;
3777;SDS011;1904;50.076;8.660;2023-05-07T21:47:32;11.93;;;5.53;;
3777;SDS011;1904;50.076;8.660;2023-05-07T21:49:57;7.90;;;5.73;;
3777;SDS011;1904;50.076;8.660;2023-05-07T21:52:23;10.33;;;7.50;;
3777;SDS011;1904;50.076;8.660;2023-05-07T21:54:53;9.70;;;6.57;;
3777;SDS011;1904;50.076;8.660;2023-05-07T21:57:19;9.83;;;6.03;;
3777;SDS011;1904;50.076;8.660;2023-05-07T21:59:45;7.63;;;5.83;;